createdAt,value
2023-11-03T00:01:20.299Z,10.20
2023-11-03T00:04:22.501Z,10.30
2023-11-03T00:07:24.639Z,10.30
2023-11-03T00:10:26.430Z,10.30
2023-11-03T00:13:28.470Z,10.20
2023-11-03T00:16:30.547Z,10.20
2023-11-03T00:19:33.014Z,10.20
2023-11-03T00:22:35.283Z,10.30
2023-11-03T00:25:37.312Z,10.30
2023-11-03T00:28:42.191Z,10.20
2023-11-03T00:31:47.371Z,10.20
2023-11-03T00:34:49.587Z,10.20
2023-11-03T00:37:52.834Z,10.30
2023-11-03T00:40:55.950Z,10.20
2023-11-03T00:43:58.892Z,10.20
2023-11-03T00:47:00.856Z,10.30
2023-11-03T00:50:03.123Z,10.30
2023-11-03T00:53:05.032Z,10.30
2023-11-03T00:56:07.009Z,10.30
2023-11-03T00:59:09.104Z,10.20
2023-11-03T01:02:12.675Z,10.20
2023-11-03T01:05:16.223Z,10.20
2023-11-03T01:08:19.098Z,10.20
2023-11-03T01:11:24.758Z,10.20
2023-11-03T01:14:27.077Z,10.30
2023-11-03T01:17:30.001Z,10.30
2023-11-03T01:20:32.507Z,10.20
2023-11-03T01:23:34.302Z,10.30
2023-11-03T01:26:36.170Z,10.20
2023-11-03T01:29:38.655Z,10.20
2023-11-03T01:32:40.684Z,10.20
2023-11-03T01:35:42.927Z,10.20
2023-11-03T01:38:45.974Z,10.20
2023-11-03T01:41:48.686Z,10.20
2023-11-03T01:44:50.599Z,10.20
2023-11-03T01:47:52.376Z,10.20
2023-11-03T01:50:56.036Z,10.20
2023-11-03T01:53:58.361Z,10.20
2023-11-03T01:57:01.175Z,10.20
2023-11-03T02:00:05.179Z,10.20
2023-11-03T02:03:07.739Z,10.20
2023-11-03T02:06:09.641Z,10.20
2023-11-03T02:09:11.416Z,10.20
2023-11-03T02:12:13.706Z,10.20
2023-11-03T02:15:15.603Z,10.20
2023-11-03T02:18:18.926Z,10.20
2023-11-03T02:21:22.105Z,10.10
2023-11-03T02:24:23.935Z,10.20
2023-11-03T02:27:26.994Z,10.20
2023-11-03T02:30:28.994Z,10.20
2023-11-03T02:33:31.422Z,10.20
2023-11-03T02:36:33.340Z,10.20
2023-11-03T02:39:36.648Z,10.20
2023-11-03T02:42:38.383Z,10.20
2023-11-03T02:45:40.353Z,10.20
2023-11-03T02:48:42.547Z,10.20
2023-11-03T02:51:44.548Z,10.20
2023-11-03T02:54:46.446Z,10.10
2023-11-03T02:57:48.399Z,10.20
2023-11-03T03:00:50.195Z,10.20
2023-11-03T03:03:53.016Z,10.10
2023-11-03T03:06:55.101Z,10.20
2023-11-03T03:09:57.118Z,10.20
2023-11-03T03:12:58.982Z,10.20
2023-11-03T03:16:01.051Z,10.20
2023-11-03T03:19:03.221Z,10.20
2023-11-03T03:22:05.175Z,10.20
2023-11-03T03:25:07.653Z,10.20
2023-11-03T03:28:09.509Z,10.20
2023-11-03T03:31:12.121Z,10.20
2023-11-03T03:34:14.110Z,10.20
2023-11-03T03:37:16.531Z,10.20
2023-11-03T03:40:18.956Z,10.10
2023-11-03T03:43:21.027Z,10.10
2023-11-03T03:46:22.804Z,10.10
2023-11-03T03:49:24.535Z,10.10
2023-11-03T03:52:26.296Z,10.10
2023-11-03T03:55:28.121Z,10.00
2023-11-03T03:58:32.504Z,10.00
2023-11-03T04:01:37.389Z,10.00
2023-11-03T04:04:44.367Z,10.00
2023-11-03T04:07:46.773Z,10.00
2023-11-03T04:10:48.581Z,9.90
2023-11-03T04:13:50.528Z,10.00
2023-11-03T04:16:53.981Z,9.90
2023-11-03T04:19:55.717Z,10.00
2023-11-03T04:22:57.958Z,10.00
2023-11-03T04:25:59.862Z,10.00
2023-11-03T04:29:01.675Z,10.00
2023-11-03T04:32:03.798Z,10.00
2023-11-03T04:35:09.272Z,9.90
2023-11-03T04:38:11.814Z,9.90
2023-11-03T04:41:13.749Z,10.00
2023-11-03T04:44:15.502Z,10.00
2023-11-03T04:47:17.540Z,9.90
2023-11-03T04:50:19.437Z,9.90
2023-11-03T04:53:21.289Z,9.90
2023-11-03T04:56:23.194Z,9.90
2023-11-03T04:59:25.019Z,9.90
2023-11-03T05:02:29.980Z,9.90
2023-11-03T05:05:33.799Z,9.90
2023-11-03T05:08:36.196Z,9.80
2023-11-03T05:11:38.101Z,9.90
2023-11-03T05:14:40.024Z,9.90
2023-11-03T05:17:41.934Z,9.90
2023-11-03T05:20:44.024Z,9.90
2023-11-03T05:23:46.063Z,9.90
2023-11-03T05:26:48.092Z,9.90
2023-11-03T05:29:49.858Z,9.90
2023-11-03T05:32:51.954Z,9.80
2023-11-03T05:35:54.516Z,9.80
2023-11-03T05:38:56.284Z,9.80
2023-11-03T05:41:58.636Z,9.80
2023-11-03T05:45:00.456Z,9.80
2023-11-03T05:48:02.546Z,9.70
2023-11-03T05:51:05.398Z,9.80
2023-11-03T05:54:07.335Z,9.70
2023-11-03T05:57:09.181Z,9.70
2023-11-03T06:00:12.702Z,9.80
2023-11-03T06:03:15.879Z,9.70
2023-11-03T06:06:19.377Z,9.70
2023-11-03T06:09:23.809Z,9.70
2023-11-03T06:12:25.743Z,9.70
2023-11-03T06:15:27.574Z,9.70
2023-11-03T06:18:29.369Z,9.80
2023-11-03T06:21:31.180Z,9.70
2023-11-03T06:24:33.235Z,9.70
2023-11-03T06:27:35.217Z,9.70
2023-11-03T06:30:37.163Z,9.70
2023-11-03T06:33:38.997Z,9.70
2023-11-03T06:36:47.472Z,9.70
2023-11-03T06:39:54.526Z,9.60
2023-11-03T06:42:56.368Z,9.70
2023-11-03T06:45:58.160Z,9.70
2023-11-03T06:49:00.215Z,9.70
2023-11-03T06:52:02.779Z,9.70
2023-11-03T06:55:04.836Z,9.60
2023-11-03T06:58:06.819Z,9.60
2023-11-03T07:01:08.880Z,9.70
2023-11-03T07:04:10.929Z,9.70
2023-11-03T07:07:12.946Z,9.70
2023-11-03T07:10:15.223Z,9.80
2023-11-03T07:13:17.094Z,9.80
2023-11-03T07:16:20.333Z,9.80
2023-11-03T07:19:23.903Z,9.80
2023-11-03T07:22:27.136Z,9.80
2023-11-03T07:25:29.049Z,9.80
2023-11-03T07:28:33.517Z,9.80
2023-11-03T07:31:35.851Z,9.90
2023-11-03T07:34:38.059Z,9.80
2023-11-03T07:37:44.399Z,9.80
2023-11-03T07:40:48.315Z,9.80
2023-11-03T07:43:50.041Z,9.80
2023-11-03T07:46:52.539Z,9.70
2023-11-03T07:49:54.441Z,9.80
2023-11-03T07:52:56.278Z,9.70
2023-11-03T07:55:58.106Z,9.70
2023-11-03T07:59:00.098Z,9.80
2023-11-03T08:02:02.082Z,9.80
2023-11-03T08:05:11.551Z,9.90
2023-11-03T08:08:17.910Z,10.00
2023-11-03T08:11:21.342Z,10.00
2023-11-03T08:14:24.360Z,10.10
2023-11-03T08:17:27.073Z,10.20
2023-11-03T08:20:29.097Z,10.20
2023-11-03T08:23:33.167Z,10.20
2023-11-03T08:26:34.965Z,10.20
2023-11-03T08:29:37.990Z,10.20
2023-11-03T08:32:40.131Z,10.30
2023-11-03T08:35:41.906Z,10.30
2023-11-03T08:38:43.994Z,10.30
2023-11-03T08:41:46.049Z,10.40
2023-11-03T08:44:48.065Z,10.40
2023-11-03T08:47:51.922Z,10.50
2023-11-03T08:50:56.158Z,10.60
2023-11-03T08:53:58.024Z,10.70
2023-11-03T08:57:03.770Z,10.80
2023-11-03T09:00:12.981Z,10.90
2023-11-03T09:03:15.153Z,11.00
2023-11-03T09:06:19.044Z,11.10
2023-11-03T09:09:22.660Z,11.20
2023-11-03T09:12:24.609Z,11.20
2023-11-03T09:15:28.626Z,11.20
2023-11-03T09:18:47.707Z,11.30
2023-11-03T09:21:50.261Z,11.40
2023-11-03T09:24:55.930Z,11.50
2023-11-03T09:28:11.155Z,11.60
2023-11-03T09:31:13.214Z,11.60
2023-11-03T09:34:15.890Z,11.70
2023-11-03T09:37:17.928Z,11.80
2023-11-03T09:40:21.872Z,11.80
2023-11-03T09:43:24.296Z,11.80
2023-11-03T09:46:26.604Z,11.80
2023-11-03T09:49:38.418Z,11.80
2023-11-03T09:52:57.860Z,11.80
2023-11-03T09:56:03.449Z,11.70
2023-11-03T09:59:08.504Z,11.60
2023-11-03T10:02:16.924Z,11.60
2023-11-03T10:05:19.677Z,11.60
2023-11-03T10:08:22.151Z,11.60
2023-11-03T10:11:24.351Z,11.60
2023-11-03T10:14:41.439Z,11.60
2023-11-03T10:17:49.269Z,11.60
2023-11-03T10:21:06.901Z,11.60
2023-11-03T10:24:08.920Z,11.60
2023-11-03T10:27:13.457Z,11.60
2023-11-03T10:30:19.437Z,11.50
2023-11-03T10:33:24.873Z,11.50
2023-11-03T10:36:27.605Z,11.50
2023-11-03T10:39:31.927Z,11.50
2023-11-03T10:42:39.715Z,11.50
2023-11-03T10:45:48.946Z,11.40
2023-11-03T10:49:04.652Z,11.30
2023-11-03T10:52:08.775Z,11.30
2023-11-03T10:55:20.424Z,11.30
2023-11-03T10:58:23.032Z,11.30
2023-11-03T11:01:33.525Z,11.30
2023-11-03T11:04:53.182Z,11.20
2023-11-03T11:08:02.871Z,11.30
2023-11-03T11:11:04.984Z,11.30
2023-11-03T11:14:26.343Z,11.30
2023-11-03T11:17:30.382Z,11.30
2023-11-03T11:20:38.516Z,11.20
2023-11-03T11:23:44.933Z,11.20
2023-11-03T11:26:48.142Z,11.30
2023-11-03T11:29:53.798Z,11.40
2023-11-03T11:32:57.118Z,11.40
2023-11-03T11:36:19.165Z,11.50
2023-11-03T11:39:24.000Z,11.50
2023-11-03T11:42:32.016Z,11.60
2023-11-03T11:45:34.683Z,11.60
2023-11-03T11:48:37.828Z,11.60
2023-11-03T11:51:40.941Z,11.70
2023-11-03T11:54:42.742Z,11.70
2023-11-03T11:57:47.731Z,11.80
2023-11-03T12:00:49.522Z,11.90
2023-11-03T12:03:53.466Z,11.90
2023-11-03T12:06:56.635Z,12.00
2023-11-03T12:09:58.807Z,12.10
2023-11-03T12:13:01.389Z,12.20
2023-11-03T12:16:05.591Z,12.30
2023-11-03T12:19:07.973Z,12.20
2023-11-03T12:22:20.836Z,12.10
2023-11-03T12:25:23.035Z,12.00
2023-11-03T12:28:25.838Z,12.00
2023-11-03T12:31:28.637Z,11.90
2023-11-03T12:34:31.364Z,11.90
2023-11-03T12:37:33.972Z,11.90
2023-11-03T12:40:36.028Z,11.80
2023-11-03T12:43:37.937Z,11.70
2023-11-03T12:46:49.356Z,11.70
2023-11-03T12:49:51.213Z,11.60
2023-11-03T12:53:06.658Z,11.60
2023-11-03T12:56:08.784Z,11.60
2023-11-03T12:59:10.712Z,11.60
2023-11-03T13:02:12.628Z,11.60
2023-11-03T13:05:15.634Z,11.70
2023-11-03T13:08:20.643Z,11.70
2023-11-03T13:11:23.553Z,11.60
2023-11-03T13:14:25.722Z,11.70
2023-11-03T13:17:27.901Z,11.70
2023-11-03T13:20:30.088Z,11.70
2023-11-03T13:23:31.817Z,11.70
2023-11-03T13:26:33.613Z,11.60
2023-11-03T13:29:35.435Z,11.70
2023-11-03T13:32:38.245Z,11.60
2023-11-03T13:35:40.573Z,11.60
2023-11-03T13:38:42.480Z,11.60
2023-11-03T13:41:45.461Z,11.60
2023-11-03T13:44:50.566Z,11.60
2023-11-03T13:47:52.469Z,11.60
2023-11-03T13:50:54.476Z,11.60
2023-11-03T13:53:57.529Z,11.60
2023-11-03T13:56:59.275Z,11.70
2023-11-03T14:00:01.281Z,11.70
2023-11-03T14:03:05.766Z,11.60
2023-11-03T14:06:09.804Z,11.60
2023-11-03T14:09:12.860Z,11.60
2023-11-03T14:12:14.777Z,11.60
2023-11-03T14:15:17.973Z,11.70
2023-11-03T14:18:20.672Z,11.70
2023-11-03T14:21:27.868Z,11.80
2023-11-03T14:24:29.788Z,11.80
2023-11-03T14:27:32.970Z,11.80
2023-11-03T14:30:34.965Z,11.80
2023-11-03T14:33:37.802Z,11.80
2023-11-03T14:36:44.533Z,11.90
2023-11-03T14:39:48.089Z,11.90
2023-11-03T14:42:50.184Z,11.90
2023-11-03T14:45:52.193Z,11.90
2023-11-03T14:48:54.175Z,12.00
2023-11-03T14:51:57.172Z,11.90
2023-11-03T14:54:59.062Z,11.90
2023-11-03T14:58:01.089Z,11.80
2023-11-03T15:01:08.617Z,11.80
2023-11-03T15:04:10.685Z,11.80
2023-11-03T15:07:12.699Z,11.70
2023-11-03T15:10:15.277Z,11.70
2023-11-03T15:13:18.693Z,11.70
2023-11-03T15:16:20.669Z,11.60
2023-11-03T15:19:22.536Z,11.60
2023-11-03T15:22:24.494Z,11.60
2023-11-03T15:25:26.549Z,11.50
2023-11-03T15:28:28.478Z,11.50
2023-11-03T15:31:31.992Z,11.40
2023-11-03T15:34:34.061Z,11.50
2023-11-03T15:37:39.846Z,11.50
2023-11-03T15:40:42.439Z,11.40
2023-11-03T15:43:44.896Z,11.40
2023-11-03T15:46:46.905Z,11.40
2023-11-03T15:49:50.634Z,11.40
2023-11-03T15:52:53.072Z,11.30
2023-11-03T15:55:56.761Z,11.30
2023-11-03T15:58:58.583Z,11.20
2023-11-03T16:02:00.323Z,11.20
2023-11-03T16:05:03.856Z,11.20
2023-11-03T16:08:10.996Z,11.20
2023-11-03T16:11:13.317Z,11.10
2023-11-03T16:14:15.783Z,11.10
2023-11-03T16:17:19.305Z,11.10
2023-11-03T16:20:21.063Z,11.00
2023-11-03T16:23:22.982Z,11.00
2023-11-03T16:26:24.717Z,11.00
2023-11-03T16:29:26.824Z,10.90
2023-11-03T16:32:28.700Z,10.90
2023-11-03T16:35:32.581Z,10.80
2023-11-03T16:38:34.415Z,10.80
2023-11-03T16:41:36.352Z,10.80
2023-11-03T16:44:38.146Z,10.80
2023-11-03T16:47:42.068Z,10.80
2023-11-03T16:50:43.945Z,10.80
2023-11-03T16:53:46.026Z,10.70
2023-11-03T16:56:51.172Z,10.70
2023-11-03T16:59:54.312Z,10.70
2023-11-03T17:02:56.246Z,10.70
2023-11-03T17:05:58.708Z,10.60
2023-11-03T17:09:00.811Z,10.60
2023-11-03T17:12:02.585Z,10.60
2023-11-03T17:15:06.582Z,10.60
2023-11-03T17:18:15.277Z,10.50
2023-11-03T17:21:17.246Z,10.60
2023-11-03T17:24:22.136Z,10.50
2023-11-03T17:27:23.956Z,10.50
2023-11-03T17:30:26.021Z,10.50
2023-11-03T17:33:28.715Z,10.50
2023-11-03T17:36:31.117Z,10.60
2023-11-03T17:39:33.243Z,10.60
2023-11-03T17:42:35.081Z,10.60
2023-11-03T17:45:36.935Z,10.60
2023-11-03T17:48:38.806Z,10.60
2023-11-03T17:51:43.355Z,10.60
2023-11-03T17:54:45.484Z,10.60
2023-11-03T17:57:47.537Z,10.60
2023-11-03T18:00:49.495Z,10.60
2023-11-03T18:03:53.264Z,10.50
2023-11-03T18:06:55.818Z,10.50
2023-11-03T18:09:58.361Z,10.50
2023-11-03T18:13:00.109Z,10.40
2023-11-03T18:16:03.528Z,10.50
2023-11-03T18:19:05.285Z,10.50
2023-11-03T18:22:08.720Z,10.50
2023-11-03T18:25:12.004Z,10.40
2023-11-03T18:28:16.139Z,10.40
2023-11-03T18:31:18.022Z,10.40
2023-11-03T18:34:24.913Z,10.40
2023-11-03T18:37:26.847Z,10.40
2023-11-03T18:40:33.618Z,10.30
2023-11-03T18:43:36.186Z,10.40
2023-11-03T18:46:38.949Z,10.30
2023-11-03T18:52:46.249Z,10.30
2023-11-03T19:00:21.746Z,10.30
2023-11-03T19:04:21.413Z,10.40
2023-11-03T19:07:25.835Z,10.40
2023-11-03T19:09:01.458Z,10.40
2023-11-03T19:12:07.352Z,10.30
2023-11-03T19:15:10.016Z,10.30
2023-11-03T19:18:12.289Z,10.30
2023-11-03T19:21:14.332Z,10.30
2023-11-03T19:24:16.585Z,10.30
2023-11-03T19:27:19.094Z,10.30
2023-11-03T19:30:21.179Z,10.30
2023-11-03T19:33:23.102Z,10.30
2023-11-03T19:36:27.060Z,10.30
2023-11-03T19:39:29.503Z,10.30
2023-11-03T19:42:31.340Z,10.30
2023-11-03T19:45:33.722Z,10.20
2023-11-03T19:48:36.364Z,10.20
2023-11-03T19:51:38.773Z,10.10
2023-11-03T19:54:40.826Z,10.10
2023-11-03T19:57:43.088Z,10.10
2023-11-03T20:00:48.890Z,10.20
2023-11-03T20:03:51.806Z,10.10
2023-11-03T20:06:54.889Z,10.10
2023-11-03T20:09:56.916Z,10.10
2023-11-03T20:12:59.507Z,10.10
2023-11-03T20:16:02.271Z,10.10
2023-11-03T20:19:05.214Z,10.00
2023-11-03T20:22:19.381Z,10.00
2023-11-03T20:25:22.005Z,10.00
2023-11-03T20:28:24.349Z,10.00
2023-11-03T20:34:42.040Z,9.90
2023-11-03T20:37:43.826Z,9.90
2023-11-03T20:40:45.718Z,9.90
2023-11-03T20:43:47.562Z,9.90
2023-11-03T20:46:49.590Z,9.90
2023-11-03T20:49:51.585Z,9.90
2023-11-03T20:52:53.423Z,9.80
2023-11-03T20:55:55.351Z,9.80
2023-11-03T20:58:57.148Z,9.70
2023-11-03T21:02:01.980Z,9.80
2023-11-03T21:05:04.398Z,9.80
2023-11-03T21:08:06.753Z,9.70
2023-11-03T21:11:08.557Z,9.70
2023-11-03T21:14:10.922Z,9.70
2023-11-03T21:17:16.518Z,9.70
2023-11-03T21:20:19.330Z,9.70
2023-11-03T21:23:23.625Z,9.60
2023-11-03T21:26:26.424Z,9.70
2023-11-03T21:29:29.016Z,9.70
2023-11-03T21:32:35.482Z,9.60
2023-11-03T21:35:37.465Z,9.60
2023-11-03T21:38:39.341Z,9.60
2023-11-03T21:41:48.118Z,9.60
2023-11-03T21:44:50.243Z,9.50
2023-11-03T21:47:52.458Z,9.50
2023-11-03T21:50:54.476Z,9.50
2023-11-03T21:53:57.201Z,9.50
2023-11-03T21:56:59.058Z,9.50
2023-11-03T22:00:01.622Z,9.60
2023-11-03T22:03:03.576Z,9.50
2023-11-03T22:06:06.947Z,9.50
2023-11-03T22:09:10.341Z,9.40
2023-11-03T22:12:12.439Z,9.50
2023-11-03T22:15:14.335Z,9.50
2023-11-03T22:18:17.454Z,9.40
2023-11-03T22:21:19.790Z,9.40
2023-11-03T22:24:21.695Z,9.40
2023-11-03T22:27:23.572Z,9.40
2023-11-03T22:30:25.485Z,9.40
2023-11-03T22:33:27.621Z,9.40
2023-11-03T22:36:29.593Z,9.40
2023-11-03T22:39:33.549Z,9.40
2023-11-03T22:42:35.518Z,9.30
2023-11-03T22:45:37.311Z,9.30
2023-11-03T22:48:39.723Z,9.40
2023-11-03T22:51:42.007Z,9.30
2023-11-03T22:54:47.738Z,9.30
2023-11-03T22:57:51.209Z,9.30
2023-11-03T23:00:53.010Z,9.30
2023-11-03T23:03:54.839Z,9.30
2023-11-03T23:06:59.557Z,9.30
2023-11-03T23:10:01.635Z,9.30
2023-11-03T23:13:05.812Z,9.30
2023-11-03T23:16:09.822Z,9.30
2023-11-03T23:19:11.727Z,9.30
2023-11-03T23:22:14.392Z,9.30
2023-11-03T23:25:16.232Z,9.30
2023-11-03T23:28:18.203Z,9.30
2023-11-03T23:31:19.981Z,9.20
2023-11-03T23:34:21.903Z,9.30
2023-11-03T23:37:24.365Z,9.30
2023-11-03T23:40:26.394Z,9.30
2023-11-03T23:43:31.921Z,9.30
2023-11-03T23:46:33.998Z,9.30
2023-11-03T23:49:37.547Z,9.30
2023-11-03T23:52:39.503Z,9.30
2023-11-03T23:55:44.157Z,9.40
2023-11-03T23:58:48.766Z,9.30
